If you wish to contribute or participate in the discussions about articles you are invited to join SKYbrary as a registered user

 Actions

Phnom Penh International Airport

From SKYbrary Wiki

VDPP /
Revision as of 14:39, 19 August 2019 by Integration.Manager (talk | contribs)
(diff) ← Older revision | Latest revision (diff) | Newer revision → (diff)
Airport
ICAO: VDPP – IATA: PNH
Summary
Name Phnom Penh International Airport
Region Asia and Pacific
Territory Cambodia KH.gif
Location Phnom Penh, Phnom Penh
Serving Phnom Penh
Elevation 12.192 m
40 ft
40 ft12.192 m
Coordinates 11° 32' 46.00" N, 104° 50' 52.01" E
Runways
Designator Length Width Surface ROPS
5/23 3000 m9,842.52 ft
44 m144.357 ft
ASP yes/yes


METAR
Observation VDPP 170030Z VRB02KT 9999 SCT017 BKN040 27/25 Q1008
Station Phnom-Penh / Pochentong
Date/Time 17 September 2019 00:30:00
Wind direction °
Wind speed 02 kts
Lowest cloud amount scattered clouds
Temperature 27°C
Dew point 25°C
Humidity 88%
QNH 1008 hPa
Weather condition n/a

International airport serving Phnom Penh, Cambodia. It is located 7 km3.78 nm
7,000 m
22,965.879 ft
west of Phnom Penh, the nation's capital.

Climatology

Tropical Savanna climate (Köppen climate classification Aw)

Maps

Terrain

Loading map...

Airport Layout

Loading map...


Accidents & Serious Incidents at or in vicinity of VDPP

None on SKYbrary